Time;durP1;ratioP1;P1;durP2;ratioP2;P2;SDS_P1;SDS_P2;PMS_P1;PMS_P2;Temp;Humidity;BMP_temperature;BMP_pressure;BME280_temperature;BME280_humidity;BME280_pressure;Samples;Min_cycle;Max_cycle;Signal;HPM_P1;HPM_P2
2023/08/14 00:01:40;;;;;;;9.95;3.15;;;21.60;92.10;;;;;;6242100;23;20446;-72
2023/08/14 00:04:26;;;;;;;8.15;3.60;;;21.60;92.30;;;;;;6220402;23;20027;-72
2023/08/14 00:07:12;;;;;;;4.00;2.80;;;21.50;92.30;;;;;;6240283;23;20012;-72
2023/08/14 00:09:58;;;;;;;4.35;2.75;;;21.50;92.50;;;;;;6241358;23;20016;-72
2023/08/14 00:12:44;;;;;;;5.95;3.38;;;21.40;92.60;;;;;;6242349;23;20043;-72
2023/08/14 00:15:30;;;;;;;6.65;2.97;;;21.40;92.70;;;;;;6242339;23;20043;-72
2023/08/14 00:18:16;;;;;;;5.90;3.17;;;21.30;92.80;;;;;;6241970;23;20107;-72
2023/08/14 00:21:02;;;;;;;8.73;3.40;;;21.30;93.10;;;;;;6242378;23;20017;-72
2023/08/14 00:23:48;;;;;;;5.15;3.22;;;21.30;93.00;;;;;;6241804;23;20023;-72
2023/08/14 00:26:34;;;;;;;4.95;3.20;;;21.30;93.30;;;;;;6242102;23;20424;-72
2023/08/14 00:29:20;;;;;;;4.43;2.92;;;21.20;93.20;;;;;;6217732;23;20603;-72
2023/08/14 00:32:05;;;;;;;6.00;3.67;;;21.20;93.30;;;;;;6242548;23;20349;-72
2023/08/14 00:34:51;;;;;;;5.18;3.40;;;21.20;93.40;;;;;;6242766;23;20008;-72
2023/08/14 00:37:42;;;;;;;6.53;3.60;;;21.20;93.50;;;;;;6241925;23;20342;-72
2023/08/14 00:40:28;;;;;;;5.40;3.25;;;21.10;93.80;;;;;;6240322;23;20093;-72
2023/08/14 00:43:14;;;;;;;7.28;3.65;;;21.10;93.70;;;;;;6240929;23;20302;-72
2023/08/14 00:46:01;;;;;;;5.88;3.88;;;21.10;93.80;;;;;;6241347;23;20008;-72
2023/08/14 00:48:47;;;;;;;7.13;3.25;;;21.10;93.90;;;;;;6219943;23;20043;-72
2023/08/14 00:51:35;;;;;;;6.13;3.25;;;21.10;94.00;;;;;;6240221;23;20095;-72
2023/08/14 00:54:21;;;;;;;4.93;3.28;;;21.10;94.10;;;;;;6239943;23;20008;-72
2023/08/14 00:57:07;;;;;;;4.28;2.92;;;21.10;94.10;;;;;;6241020;23;20042;-71
2023/08/14 00:59:53;;;;;;;4.95;3.53;;;21.10;94.20;;;;;;6242016;23;20016;-72
2023/08/14 01:02:41;;;;;;;4.72;3.22;;;21.00;94.30;;;;;;6219235;23;20402;-72
2023/08/14 01:05:27;;;;;;;5.60;3.17;;;21.00;94.50;;;;;;6219204;23;20019;-72
2023/08/14 01:08:13;;;;;;;4.40;3.08;;;21.00;94.50;;;;;;6241520;23;20043;-72
2023/08/14 01:11:35;;;;;;;6.30;3.20;;;21.00;94.60;;;;;;6241933;23;20008;-72
2023/08/14 01:14:29;;;;;;;4.50;3.50;;;21.00;94.80;;;;;;6240386;23;20004;-72
2023/08/14 01:17:17;;;;;;;5.60;3.42;;;20.90;94.90;;;;;;6239564;23;20413;-72
2023/08/14 01:20:04;;;;;;;4.65;3.55;;;20.90;95.00;;;;;;6241112;23;20438;-72
2023/08/14 01:23:17;;;;;;;5.05;3.60;;;20.90;95.10;;;;;;6238903;23;20738;-72
2023/08/14 01:26:03;;;;;;;3.90;2.90;;;20.90;95.30;;;;;;6217259;23;20016;-72
2023/08/14 01:28:50;;;;;;;4.75;3.45;;;20.90;95.40;;;;;;6240957;23;20012;-72
2023/08/14 01:31:36;;;;;;;5.45;3.33;;;20.90;95.60;;;;;;6239768;23;20536;-72
2023/08/14 01:34:24;;;;;;;5.18;3.55;;;20.90;95.70;;;;;;6240871;23;20438;-72
2023/08/14 01:37:30;;;;;;;4.72;3.20;;;20.80;95.90;;;;;;6240212;23;20066;-72
2023/08/14 01:40:19;;;;;;;5.13;3.10;;;20.90;96.10;;;;;;6240085;23;20008;-72
2023/08/14 01:43:09;;;;;;;9.18;3.75;;;20.80;96.10;;;;;;6241307;23;20456;-72
2023/08/14 01:45:56;;;;;;;5.93;3.58;;;20.80;96.30;;;;;;6239893;23;20004;-71
2023/08/14 01:48:43;;;;;;;6.18;3.45;;;20.80;96.50;;;;;;6239731;23;20027;-72
2023/08/14 01:51:31;;;;;;;6.38;3.97;;;20.80;96.50;;;;;;6239856;23;20016;-73
2023/08/14 01:54:17;;;;;;;6.45;3.95;;;20.80;96.60;;;;;;6239387;23;20004;-72
2023/08/14 01:57:03;;;;;;;7.45;3.67;;;20.70;96.70;;;;;;6242029;23;20019;-72
2023/08/14 01:59:49;;;;;;;5.72;3.70;;;20.70;96.90;;;;;;6241433;23;20020;-72
2023/08/14 02:02:35;;;;;;;6.93;4.00;;;20.70;97.00;;;;;;6239305;23;20024;-73
2023/08/14 02:05:21;;;;;;;6.18;3.90;;;20.70;97.10;;;;;;6240551;23;20101;-74
2023/08/14 02:08:07;;;;;;;5.63;3.85;;;20.70;97.20;;;;;;6241346;23;20009;-74
2023/08/14 02:10:53;;;;;;;6.25;4.30;;;20.60;97.30;;;;;;6239609;23;20745;-73
2023/08/14 02:13:39;;;;;;;5.78;3.80;;;20.60;97.60;;;;;;6238169;23;20038;-73
2023/08/14 02:16:25;;;;;;;6.15;4.28;;;20.60;97.50;;;;;;6218221;23;20391;-73
2023/08/14 02:19:11;;;;;;;5.78;3.60;;;20.50;97.70;;;;;;6240375;23;20341;-79
2023/08/14 02:21:57;;;;;;;5.68;3.70;;;20.50;97.70;;;;;;6239993;23;20106;-73
2023/08/14 02:24:43;;;;;;;7.97;4.68;;;20.50;97.90;;;;;;6241348;23;20008;-73
2023/08/14 02:27:29;;;;;;;7.15;4.30;;;20.40;97.90;;;;;;6239356;23;20020;-73
2023/08/14 02:30:15;;;;;;;7.68;4.18;;;20.40;98.10;;;;;;6242062;23;20012;-73
2023/08/14 02:33:01;;;;;;;8.25;3.80;;;20.40;98.00;;;;;;6239967;23;20009;-72
2023/08/14 02:35:47;;;;;;;6.63;3.45;;;20.40;98.20;;;;;;6246932;23;20008;-72
2023/08/14 02:38:33;;;;;;;5.90;3.55;;;20.40;98.30;;;;;;6241063;23;20042;-73
2023/08/14 02:41:20;;;;;;;6.90;4.38;;;20.40;98.50;;;;;;6238846;23;20059;-73
2023/08/14 02:44:06;;;;;;;5.35;3.55;;;20.30;98.60;;;;;;6238986;23;20096;-73
2023/08/14 02:46:54;;;;;;;5.75;4.10;;;20.30;98.70;;;;;;6241002;23;20016;-73
2023/08/14 02:49:40;;;;;;;5.20;3.65;;;20.30;98.80;;;;;;6238866;23;20012;-73
2023/08/14 02:52:26;;;;;;;5.05;3.72;;;20.40;98.80;;;;;;6239830;23;20438;-73
2023/08/14 02:55:12;;;;;;;5.50;3.63;;;20.40;98.90;;;;;;6241454;23;20430;-73
2023/08/14 02:57:58;;;;;;;4.53;3.55;;;20.40;99.00;;;;;;6239742;23;20442;-74
2023/08/14 03:00:47;;;;;;;5.57;3.55;;;20.30;99.00;;;;;;6239900;23;20024;-74
2023/08/14 03:03:33;;;;;;;4.15;3.38;;;20.30;99.10;;;;;;6239136;23;20020;-74
2023/08/14 03:06:19;;;;;;;6.82;3.85;;;20.30;99.10;;;;;;6240986;23;20107;-75
2023/08/14 03:09:05;;;;;;;4.30;3.67;;;20.30;99.20;;;;;;6238957;23;20005;-77
2023/08/14 03:11:51;;;;;;;8.30;3.58;;;20.30;99.30;;;;;;6240171;23;20452;-75
2023/08/14 03:14:37;;;;;;;4.40;3.15;;;20.30;99.30;;;;;;6240801;23;20107;-76
2023/08/14 03:17:23;;;;;;;4.55;3.42;;;20.30;99.30;;;;;;6241268;23;20034;-75
2023/08/14 03:20:09;;;;;;;4.20;3.63;;;20.30;99.60;;;;;;6241335;23;20012;-75
2023/08/14 03:22:55;;;;;;;3.95;3.38;;;20.30;99.50;;;;;;6239875;23;20103;-75
2023/08/14 03:25:41;;;;;;;6.90;3.25;;;20.30;99.50;;;;;;6241020;23;20009;-76
2023/08/14 03:28:27;;;;;;;5.38;3.50;;;20.30;99.60;;;;;;6241826;23;20012;-77
2023/08/14 03:31:13;;;;;;;4.25;3.47;;;20.20;99.60;;;;;;6242132;23;20016;-74
2023/08/14 03:33:59;;;;;;;5.93;3.90;;;20.20;99.60;;;;;;6242451;23;20046;-74
2023/08/14 03:36:45;;;;;;;4.45;3.05;;;20.20;99.70;;;;;;6242843;23;20004;-74
2023/08/14 03:39:31;;;;;;;4.13;3.30;;;20.20;99.70;;;;;;6241910;23;20419;-74
2023/08/14 03:42:17;;;;;;;5.18;3.58;;;20.20;99.80;;;;;;6242139;23;20016;-72
2023/08/14 03:45:03;;;;;;;7.45;3.42;;;20.20;99.90;;;;;;6242744;23;20004;-72
2023/08/14 03:47:49;;;;;;;5.63;3.38;;;20.10;99.90;;;;;;6241565;23;20023;-70
2023/08/14 03:50:35;;;;;;;4.68;3.42;;;20.10;99.90;;;;;;6242707;23;20008;-79
2023/08/14 03:53:21;;;;;;;7.60;3.75;;;20.00;99.90;;;;;;6241310;23;20012;-79
2023/08/14 03:56:07;;;;;;;5.57;3.70;;;20.00;99.90;;;;;;6242353;23;20000;-78
2023/08/14 03:58:53;;;;;;;5.13;3.83;;;20.00;99.90;;;;;;6241731;23;20361;-75
2023/08/14 04:01:42;;;;;;;6.35;4.03;;;19.90;99.90;;;;;;6241491;23;20361;-74
2023/08/14 04:04:28;;;;;;;7.07;4.10;;;19.90;99.90;;;;;;6242236;23;20062;-74
2023/08/14 04:07:14;;;;;;;5.57;3.72;;;19.80;99.90;;;;;;6241350;23;20144;-75
2023/08/14 04:10:00;;;;;;;6.32;3.50;;;19.80;99.90;;;;;;6242017;23;20014;-74
2023/08/14 04:12:46;;;;;;;4.82;3.70;;;19.80;99.90;;;;;;6240560;23;20004;-75
2023/08/14 04:15:32;;;;;;;5.20;4.25;;;19.80;99.90;;;;;;6221637;23;20069;-75
2023/08/14 04:18:18;;;;;;;10.70;4.20;;;19.80;99.90;;;;;;6240934;23;20000;-74
2023/08/14 04:21:04;;;;;;;4.22;3.17;;;19.90;99.90;;;;;;6241523;23;20024;-73
2023/08/14 04:23:50;;;;;;;5.35;3.92;;;19.90;99.90;;;;;;6241756;23;20012;-74
2023/08/14 04:26:36;;;;;;;6.50;4.10;;;19.80;99.90;;;;;;6242006;23;20039;-76
2023/08/14 04:29:22;;;;;;;5.88;3.90;;;19.90;99.90;;;;;;6241858;23;20047;-74
2023/08/14 04:32:08;;;;;;;5.80;3.80;;;19.90;99.90;;;;;;6239818;23;20011;-74
2023/08/14 04:34:54;;;;;;;7.05;3.80;;;19.80;99.90;;;;;;6219730;23;20008;-75
2023/08/14 04:37:40;;;;;;;5.78;3.50;;;19.90;99.90;;;;;;6219026;23;20012;-75
2023/08/14 04:40:26;;;;;;;4.78;3.67;;;19.90;99.90;;;;;;6242243;23;20016;-75
2023/08/14 04:43:12;;;;;;;6.88;3.88;;;19.90;99.90;;;;;;6219773;23;20088;-75
2023/08/14 04:46:01;;;;;;;5.55;3.55;;;19.90;99.90;;;;;;6220120;23;20043;-74
2023/08/14 04:48:47;;;;;;;6.03;3.50;;;19.90;99.90;;;;;;6241158;23;20099;-73
2023/08/14 04:51:33;;;;;;;6.35;3.90;;;20.00;99.90;;;;;;6241140;23;20016;-74
2023/08/14 04:54:19;;;;;;;4.45;3.78;;;20.00;99.90;;;;;;6239836;23;20323;-74
2023/08/14 04:57:05;;;;;;;5.35;3.45;;;20.00;99.90;;;;;;6241383;23;20082;-74
2023/08/14 04:59:51;;;;;;;7.13;3.80;;;20.00;99.90;;;;;;6239637;23;20004;-74
2023/08/14 05:02:38;;;;;;;7.20;3.83;;;20.10;99.90;;;;;;6241171;23;20054;-74
2023/08/14 05:05:24;;;;;;;5.50;3.25;;;20.10;99.90;;;;;;6219348;23;20385;-73
2023/08/14 05:08:10;;;;;;;6.72;3.47;;;20.10;99.90;;;;;;6242524;23;20355;-75
2023/08/14 05:10:56;;;;;;;5.35;3.95;;;20.10;99.90;;;;;;6246218;23;20016;-72
2023/08/14 05:13:44;;;;;;;5.57;3.58;;;20.20;99.90;;;;;;6252842;23;20086;-74
2023/08/14 05:16:30;;;;;;;6.57;3.83;;;20.20;99.90;;;;;;6240088;23;20081;-75
2023/08/14 05:19:16;;;;;;;7.40;3.88;;;20.20;99.90;;;;;;6239715;23;20102;-74
2023/08/14 05:22:02;;;;;;;7.95;3.90;;;20.30;99.90;;;;;;6240331;23;20055;-74
2023/08/14 05:24:48;;;;;;;6.20;3.40;;;20.30;99.90;;;;;;6241795;23;20083;-74
2023/08/14 05:27:38;;;;;;;8.60;4.00;;;20.40;99.90;;;;;;6240088;23;20426;-74
2023/08/14 05:30:24;;;;;;;6.75;3.67;;;20.40;99.90;;;;;;6220720;23;20020;-74
2023/08/14 05:33:10;;;;;;;4.82;3.35;;;20.50;99.90;;;;;;6219171;23;20059;-74
2023/08/14 05:35:56;;;;;;;7.13;3.65;;;20.50;99.90;;;;;;6220007;23;20018;-74
2023/08/14 05:38:45;;;;;;;6.32;3.85;;;20.60;99.90;;;;;;6218834;23;20015;-74
2023/08/14 05:41:31;;;;;;;6.45;3.63;;;20.60;99.90;;;;;;6239959;23;20016;-74
2023/08/14 05:44:17;;;;;;;6.65;3.85;;;20.60;99.90;;;;;;6240846;23;20008;-74
2023/08/14 05:47:03;;;;;;;4.50;3.35;;;20.70;99.90;;;;;;6240823;23;20011;-74
2023/08/14 05:49:49;;;;;;;4.90;3.63;;;20.70;99.90;;;;;;6241950;23;20004;-74
2023/08/14 05:52:35;;;;;;;6.22;3.45;;;20.70;99.90;;;;;;6240417;23;20040;-74
2023/08/14 05:55:21;;;;;;;9.25;3.80;;;20.80;99.90;;;;;;6241308;23;20066;-74
2023/08/14 05:58:07;;;;;;;4.47;3.03;;;20.90;99.90;;;;;;6240646;23;20012;-74
2023/08/14 06:00:53;;;;;;;6.25;3.33;;;20.90;99.90;;;;;;6236658;23;20589;-75
2023/08/14 06:03:39;;;;;;;4.57;3.22;;;20.90;99.90;;;;;;6239601;23;20461;-75
2023/08/14 06:06:26;;;;;;;6.72;4.30;;;21.00;99.90;;;;;;6241320;23;20032;-75
2023/08/14 06:09:12;;;;;;;7.22;3.90;;;21.10;99.90;;;;;;6239732;23;20320;-74
2023/08/14 06:11:58;;;;;;;7.68;3.70;;;21.10;99.90;;;;;;6241436;23;20389;-75
2023/08/14 06:14:44;;;;;;;10.10;3.72;;;21.10;99.90;;;;;;6240408;23;20015;-75
2023/08/14 06:17:32;;;;;;;5.05;3.60;;;21.20;99.90;;;;;;6240596;23;20008;-75
2023/08/14 06:20:17;;;;;;;5.03;3.50;;;21.30;99.90;;;;;;6238339;23;20107;-74
2023/08/14 06:23:03;;;;;;;8.52;4.20;;;21.30;99.90;;;;;;6241497;23;20012;-75
2023/08/14 06:25:49;;;;;;;5.93;3.75;;;21.40;99.90;;;;;;6239915;23;20012;-74
2023/08/14 06:28:35;;;;;;;4.22;2.92;;;21.50;99.90;;;;;;6240006;23;20040;-74
2023/08/14 06:31:21;;;;;;;5.93;3.13;;;21.60;99.80;;;;;;6240487;23;20031;-75
2023/08/14 06:34:07;;;;;;;4.90;2.75;;;21.60;99.80;;;;;;6238707;23;20400;-73
2023/08/14 06:36:53;;;;;;;5.60;3.47;;;21.70;99.60;;;;;;6239754;23;20482;-73
2023/08/14 06:39:39;;;;;;;5.07;3.10;;;21.80;99.50;;;;;;6239661;23;20020;-73
2023/08/14 06:42:25;;;;;;;4.40;2.63;;;21.90;99.40;;;;;;6237041;23;20138;-72
2023/08/14 06:45:11;;;;;;;4.97;3.38;;;22.00;99.30;;;;;;6219008;23;20000;-72
2023/08/14 06:47:57;;;;;;;5.00;3.20;;;22.00;99.20;;;;;;6239111;23;20019;-72
2023/08/14 06:50:43;;;;;;;5.72;3.22;;;22.10;99.00;;;;;;6241232;23;20092;-73
2023/08/14 06:53:29;;;;;;;5.30;3.05;;;22.20;98.90;;;;;;6217893;23;20018;-72
2023/08/14 06:56:15;;;;;;;5.57;3.15;;;22.30;98.90;;;;;;6218259;23;20445;-72
2023/08/14 06:59:00;;;;;;;5.18;3.47;;;22.30;98.80;;;;;;6238613;23;20012;-72
2023/08/14 07:01:46;;;;;;;7.85;3.47;;;22.40;98.70;;;;;;6240997;23;20434;-73
2023/08/14 07:04:32;;;;;;;8.80;3.20;;;22.50;98.70;;;;;;6241953;23;20020;-70
2023/08/14 07:07:18;;;;;;;4.45;3.40;;;22.60;98.70;;;;;;6242268;23;20741;-73
2023/08/14 07:10:05;;;;;;;5.38;3.15;;;22.60;98.50;;;;;;6240582;23;20016;-71
2023/08/14 07:12:51;;;;;;;3.33;2.33;;;22.70;98.40;;;;;;6239074;23;20038;-69
2023/08/14 07:15:36;;;;;;;4.85;2.40;;;22.80;98.20;;;;;;6242393;23;20015;-66
2023/08/14 07:18:22;;;;;;;4.72;2.42;;;22.90;98.00;;;;;;6242740;23;20039;-66
2023/08/14 07:21:08;;;;;;;5.85;2.90;;;23.00;98.00;;;;;;6240113;23;20026;-66
2023/08/14 07:23:54;;;;;;;8.32;2.55;;;23.00;97.90;;;;;;6241591;23;20010;-66
2023/08/14 07:26:41;;;;;;;9.18;3.13;;;23.10;97.60;;;;;;6242405;23;20577;-66
2023/08/14 07:29:26;;;;;;;4.10;2.10;;;23.20;97.40;;;;;;6242614;23;20342;-66
2023/08/14 07:32:12;;;;;;;5.97;2.42;;;23.30;97.20;;;;;;6239810;23;20031;-67
2023/08/14 07:34:58;;;;;;;7.25;2.75;;;23.40;97.00;;;;;;6241653;23;20004;-66
2023/08/14 07:37:44;;;;;;;4.97;2.53;;;23.40;96.70;;;;;;6241710;23;20026;-66
2023/08/14 07:40:30;;;;;;;3.88;2.60;;;23.50;96.70;;;;;;6241899;23;20016;-68
2023/08/14 07:43:16;;;;;;;5.05;2.13;;;23.60;96.70;;;;;;6239149;23;20012;-68
2023/08/14 07:46:02;;;;;;;5.53;2.22;;;23.70;96.50;;;;;;6240240;23;20042;-68
2023/08/14 07:48:48;;;;;;;8.43;3.17;;;23.70;96.30;;;;;;6243561;23;20012;-67
2023/08/14 07:51:34;;;;;;;11.38;2.90;;;23.80;96.10;;;;;;6247184;23;20091;-67
2023/08/14 07:54:20;;;;;;;4.40;2.50;;;23.90;96.10;;;;;;6242677;23;20011;-67
2023/08/14 07:57:06;;;;;;;3.95;2.50;;;24.00;95.80;;;;;;6239626;23;20011;-68
2023/08/14 07:59:51;;;;;;;5.38;2.30;;;24.00;95.60;;;;;;6241276;23;20008;-67
2023/08/14 08:02:37;;;;;;;3.58;2.25;;;24.10;95.60;;;;;;6239064;23;20024;-67
2023/08/14 08:05:23;;;;;;;3.90;2.20;;;24.20;95.40;;;;;;6240466;23;20071;-67
2023/08/14 08:08:09;;;;;;;4.75;2.38;;;24.30;95.20;;;;;;6218761;23;20008;-67
2023/08/14 08:10:55;;;;;;;3.08;2.00;;;24.30;95.20;;;;;;6241991;23;20055;-68
2023/08/14 08:13:42;;;;;;;4.57;2.35;;;24.40;94.80;;;;;;6240101;23;20019;-68
2023/08/14 08:16:30;;;;;;;3.92;2.30;;;24.50;94.70;;;;;;6240479;23;20040;-67
2023/08/14 08:19:16;;;;;;;6.13;1.92;;;24.60;94.50;;;;;;6239480;23;20405;-68
2023/08/14 08:22:02;;;;;;;6.85;2.30;;;24.70;94.10;;;;;;6239549;23;20023;-67
2023/08/14 08:24:48;;;;;;;7.25;2.20;;;24.70;93.90;;;;;;6239705;23;20143;-67
2023/08/14 08:27:35;;;;;;;3.22;2.00;;;24.80;93.80;;;;;;6241837;23;20517;-67
2023/08/14 08:30:21;;;;;;;2.85;1.90;;;24.90;93.60;;;;;;6239468;23;20004;-67
2023/08/14 08:33:07;;;;;;;6.50;2.50;;;24.90;93.60;;;;;;6240162;23;20011;-66
2023/08/14 08:35:53;;;;;;;3.40;2.13;;;24.90;93.30;;;;;;6239354;23;20016;-66
2023/08/14 08:38:39;;;;;;;4.55;2.20;;;25.00;93.20;;;;;;6240414;23;20016;-66
2023/08/14 08:41:31;;;;;;;7.00;2.35;;;25.10;93.10;;;;;;6239050;23;20020;-67
2023/08/14 08:44:25;;;;;;;3.10;2.08;;;25.20;93.00;;;;;;6240194;23;20008;-66
2023/08/14 08:47:13;;;;;;;;;;;25.30;92.60;;;;;;6239166;23;20022;-67
2023/08/14 08:50:00;;;;;;;3.85;1.92;;;25.30;93.30;;;;;;6241216;23;19981;-67
2023/08/14 08:52:47;;;;;;;4.15;2.10;;;25.40;92.80;;;;;;6238980;23;20083;-66
2023/08/14 08:55:33;;;;;;;4.35;1.98;;;25.40;92.10;;;;;;6238520;23;20083;-66
2023/08/14 08:58:20;;;;;;;3.45;2.28;;;25.50;91.70;;;;;;6239878;23;20008;-66
2023/08/14 09:01:06;;;;;;;6.07;1.88;;;25.60;91.50;;;;;;6240581;23;20103;-66
2023/08/14 09:03:52;;;;;;;4.25;2.35;;;25.60;91.60;;;;;;6239005;23;20016;-67
2023/08/14 09:06:38;;;;;;;5.55;2.05;;;25.70;91.50;;;;;;6238663;23;20012;-66
2023/08/14 09:09:24;;;;;;;2.88;1.73;;;25.80;91.50;;;;;;6237979;23;20012;-67
2023/08/14 09:12:10;;;;;;;3.83;1.60;;;25.80;91.30;;;;;;6240719;23;20008;-67
2023/08/14 09:15:04;;;;;;;3.25;2.13;;;25.90;90.70;;;;;;6240616;23;20194;-66
2023/08/14 09:17:52;;;;;;;2.42;1.80;;;26.00;90.70;;;;;;6238507;23;20004;-67
2023/08/14 09:20:39;;;;;;;3.45;1.85;;;26.00;90.70;;;;;;6239081;23;20026;-66
2023/08/14 09:23:25;;;;;;;3.15;1.95;;;26.10;90.50;;;;;;6238737;23;20012;-66
2023/08/14 09:26:11;;;;;;;3.05;1.80;;;26.10;89.50;;;;;;6220893;23;20012;-66
2023/08/14 09:28:58;;;;;;;4.28;2.25;;;26.20;88.80;;;;;;6236459;23;20020;-66
2023/08/14 09:31:45;;;;;;;4.03;1.60;;;26.20;88.90;;;;;;6241180;23;20015;-66
2023/08/14 09:34:31;;;;;;;2.53;1.50;;;26.30;87.50;;;;;;6237662;23;20115;-66
2023/08/14 09:37:20;;;;;;;3.65;1.80;;;26.40;86.90;;;;;;6237982;23;20040;-66
2023/08/14 09:40:16;;;;;;;3.92;1.50;;;26.50;86.30;;;;;;6239350;23;20008;-65
2023/08/14 09:43:02;;;;;;;2.83;1.60;;;26.50;85.50;;;;;;6234454;23;20456;-66
2023/08/14 09:45:48;;;;;;;5.28;2.38;;;26.60;85.60;;;;;;6240438;23;20036;-65
2023/08/14 09:48:47;;;;;;;2.63;1.60;;;26.70;85.10;;;;;;6239367;23;20012;-66
2023/08/14 09:51:34;;;;;;;3.22;1.83;;;26.70;85.70;;;;;;6240541;23;20015;-65
2023/08/14 09:54:28;;;;;;;2.88;1.73;;;26.80;85.40;;;;;;6235636;23;20457;-65
2023/08/14 09:57:15;;;;;;;2.40;1.55;;;26.90;85.40;;;;;;6237204;23;20004;-65
2023/08/14 10:00:01;;;;;;;3.22;1.67;;;27.00;85.30;;;;;;6237454;23;20008;-64
2023/08/14 10:02:48;;;;;;;3.15;1.48;;;27.00;84.60;;;;;;6236396;23;20027;-65
2023/08/14 10:05:34;;;;;;;2.65;1.70;;;27.10;84.10;;;;;;6237702;23;20032;-65
2023/08/14 10:08:20;;;;;;;3.95;1.73;;;27.10;83.20;;;;;;6236575;23;20349;-65
2023/08/14 10:11:11;;;;;;;4.07;1.80;;;27.20;83.40;;;;;;6217257;23;20008;-64
2023/08/14 10:14:04;;;;;;;2.50;1.77;;;27.30;84.50;;;;;;6235962;23;20008;-65
2023/08/14 10:16:52;;;;;;;3.83;1.77;;;27.30;84.60;;;;;;6236798;23;20070;-65
2023/08/14 10:19:40;;;;;;;3.90;1.80;;;27.40;84.30;;;;;;6237509;23;20019;-65
2023/08/14 10:22:27;;;;;;;2.75;1.83;;;27.50;84.50;;;;;;6217685;23;20016;-65
2023/08/14 10:25:14;;;;;;;4.65;1.88;;;27.60;84.40;;;;;;6238893;23;20396;-65
2023/08/14 10:28:01;;;;;;;3.08;2.03;;;27.60;84.10;;;;;;6237954;23;20031;-65
2023/08/14 10:30:47;;;;;;;2.30;1.58;;;27.70;82.60;;;;;;6237642;23;20482;-65
2023/08/14 10:33:33;;;;;;;3.15;2.00;;;27.80;82.80;;;;;;6238234;23;20042;-65
2023/08/14 10:36:20;;;;;;;3.42;2.47;;;27.80;82.60;;;;;;6237944;23;20038;-65
2023/08/14 10:39:08;;;;;;;3.80;2.30;;;27.90;83.20;;;;;;6236789;23;20012;-65
2023/08/14 10:41:59;;;;;;;3.15;1.98;;;27.90;82.30;;;;;;6242322;23;20035;-65
2023/08/14 10:44:45;;;;;;;2.50;1.65;;;28.00;81.80;;;;;;6220269;23;20008;-65
2023/08/14 10:47:31;;;;;;;2.50;1.50;;;28.10;81.80;;;;;;6241888;23;20023;-65
2023/08/14 10:50:23;;;;;;;2.67;1.40;;;28.10;80.80;;;;;;6241547;23;20008;-65
2023/08/14 10:53:10;;;;;;;2.67;1.33;;;28.10;80.30;;;;;;6239211;23;20019;-65
2023/08/14 10:55:58;;;;;;;3.28;1.40;;;28.20;79.50;;;;;;6239641;23;20008;-71
2023/08/14 10:58:50;;;;;;;3.38;1.63;;;28.20;80.50;;;;;;6238691;23;20077;-70
2023/08/14 11:01:36;;;;;;;2.25;1.50;;;28.30;79.60;;;;;;6241241;23;20354;-67
2023/08/14 11:04:22;;;;;;;3.47;1.67;;;28.30;79.30;;;;;;6241765;23;20409;-66
2023/08/14 11:07:09;;;;;;;3.13;1.60;;;28.30;79.60;;;;;;6242564;23;20405;-75
2023/08/14 11:09:57;;;;;;;2.60;1.73;;;28.30;79.80;;;;;;6222075;23;20058;-69
2023/08/14 11:12:43;;;;;;;2.13;1.45;;;28.40;79.20;;;;;;6241247;23;20159;-75
2023/08/14 11:15:34;;;;;;;2.55;1.67;;;28.50;79.20;;;;;;6241719;23;20083;-73
2023/08/14 11:18:20;;;;;;;2.53;1.67;;;28.50;79.60;;;;;;6215366;23;20350;-72
2023/08/14 11:21:06;;;;;;;4.93;2.15;;;28.60;78.80;;;;;;6220318;23;20077;-73
2023/08/14 11:23:52;;;;;;;2.63;1.67;;;28.70;78.60;;;;;;6240362;23;20062;-73
2023/08/14 11:26:38;;;;;;;3.58;1.88;;;28.70;77.90;;;;;;6218780;23;20373;-74
2023/08/14 11:29:24;;;;;;;2.80;1.35;;;28.70;78.00;;;;;;6240394;23;20018;-73
2023/08/14 11:32:10;;;;;;;1.45;1.10;;;28.80;77.90;;;;;;6242109;23;20018;-73
2023/08/14 11:34:56;;;;;;;4.32;1.70;;;28.80;78.10;;;;;;6242003;23;20019;-72
2023/08/14 11:37:43;;;;;;;2.42;1.45;;;28.80;77.90;;;;;;6238069;23;20012;-72
2023/08/14 11:40:31;;;;;;;2.90;1.70;;;28.80;77.40;;;;;;6220169;23;20017;-72
2023/08/14 11:43:17;;;;;;;3.72;1.92;;;28.90;77.40;;;;;;6219595;23;20476;-72
2023/08/14 11:46:04;;;;;;;2.28;1.35;;;29.00;77.60;;;;;;6241998;23;20012;-72
2023/08/14 11:48:49;;;;;;;4.25;2.13;;;29.10;77.40;;;;;;6239215;23;20473;-72
2023/08/14 11:51:38;;;;;;;3.63;1.95;;;29.20;78.40;;;;;;6220660;23;20465;-71
2023/08/14 11:54:24;;;;;;;5.00;2.72;;;29.20;77.90;;;;;;6237715;23;20016;-72
2023/08/14 11:57:13;;;;;;;4.20;2.10;;;29.20;78.30;;;;;;6241972;23;20353;-71
2023/08/14 12:00:00;;;;;;;3.17;2.00;;;29.30;78.10;;;;;;6240522;23;20016;-72
2023/08/14 12:02:46;;;;;;;3.55;2.22;;;29.30;77.90;;;;;;6218529;23;20459;-72
2023/08/14 12:05:33;;;;;;;5.03;2.30;;;29.30;77.20;;;;;;6240119;23;20028;-72
2023/08/14 12:08:20;;;;;;;2.78;1.95;;;29.40;77.70;;;;;;6241333;23;20016;-72
2023/08/14 12:11:07;;;;;;;3.65;2.72;;;29.50;77.40;;;;;;6219314;23;20421;-72
2023/08/14 12:13:52;;;;;;;4.47;2.47;;;29.50;77.30;;;;;;6237918;23;20091;-72
2023/08/14 12:16:39;;;;;;;3.10;2.33;;;29.60;77.70;;;;;;6218899;23;20508;-75
2023/08/14 12:19:27;;;;;;;4.53;2.53;;;29.70;77.30;;;;;;6217775;23;20085;-70
2023/08/14 12:22:13;;;;;;;3.00;2.05;;;29.80;77.40;;;;;;6239714;23;20098;-73
2023/08/14 12:24:59;;;;;;;3.00;2.25;;;29.80;76.50;;;;;;6242576;23;20012;-73
2023/08/14 12:27:45;;;;;;;3.88;1.77;;;29.90;76.20;;;;;;6241277;23;20016;-72
2023/08/14 12:30:31;;;;;;;2.28;1.65;;;30.00;76.50;;;;;;6242525;23;20091;-67
2023/08/14 12:33:17;;;;;;;3.15;2.00;;;30.00;76.90;;;;;;6240332;23;20386;-68
2023/08/14 12:36:03;;;;;;;2.35;1.83;;;30.10;77.00;;;;;;6220841;23;20369;-68
2023/08/14 12:38:49;;;;;;;3.50;2.03;;;30.10;77.10;;;;;;6241546;23;20039;-66
2023/08/14 12:41:35;;;;;;;2.42;1.85;;;30.20;76.80;;;;;;6243031;23;20032;-67
2023/08/14 12:44:21;;;;;;;2.45;1.58;;;30.20;76.60;;;;;;6241177;23;20430;-67
2023/08/14 12:47:07;;;;;;;2.55;1.73;;;30.20;75.40;;;;;;6242202;23;20127;-67
2023/08/14 12:49:53;;;;;;;3.28;1.70;;;30.30;75.60;;;;;;6240429;23;20012;-67
2023/08/14 12:52:39;;;;;;;2.83;1.83;;;30.40;75.00;;;;;;6241415;23;20016;-66
2023/08/14 12:55:25;;;;;;;2.80;1.83;;;30.50;75.50;;;;;;6239594;23;20016;-66
2023/08/14 12:58:12;;;;;;;4.15;1.83;;;30.50;75.40;;;;;;6239851;23;20008;-68
2023/08/14 13:00:58;;;;;;;2.15;1.45;;;30.60;74.70;;;;;;6239694;23;20031;-67
2023/08/14 13:03:43;;;;;;;2.65;1.80;;;30.60;74.30;;;;;;6240458;23;20028;-68
2023/08/14 13:06:31;;;;;;;1.85;1.30;;;30.70;74.80;;;;;;6241696;23;20008;-69
2023/08/14 13:09:17;;;;;;;2.65;1.77;;;30.80;74.00;;;;;;6218638;23;20508;-69
2023/08/14 13:12:03;;;;;;;2.55;1.48;;;30.90;73.10;;;;;;6244700;23;20019;-67
2023/08/14 13:14:49;;;;;;;2.88;1.83;;;31.00;73.30;;;;;;6240325;23;20008;-69
2023/08/14 13:17:35;;;;;;;3.47;2.00;;;31.10;72.50;;;;;;6238712;23;20012;-69
2023/08/14 13:20:21;;;;;;;3.15;1.75;;;31.20;72.20;;;;;;6240626;23;20011;-69
2023/08/14 13:23:07;;;;;;;2.88;1.67;;;31.30;72.30;;;;;;6240293;23;20008;-69
2023/08/14 13:25:53;;;;;;;3.22;1.65;;;31.40;71.60;;;;;;6242178;23;20008;-69
2023/08/14 13:28:39;;;;;;;2.38;1.70;;;31.60;70.80;;;;;;6241542;23;20012;-67
2023/08/14 13:31:27;;;;;;;2.53;1.30;;;31.50;70.70;;;;;;6240274;23;20005;-66
2023/08/14 13:34:13;;;;;;;2.67;1.85;;;31.50;70.90;;;;;;6240253;23;20008;-67
2023/08/14 13:36:59;;;;;;;3.00;1.90;;;31.50;70.80;;;;;;6240056;23;20012;-71
2023/08/14 13:39:45;;;;;;;2.75;1.67;;;31.40;71.00;;;;;;6240179;23;20074;-71
2023/08/14 13:42:31;;;;;;;2.65;2.08;;;31.30;71.10;;;;;;6238861;23;20146;-71
2023/08/14 13:45:17;;;;;;;4.47;2.25;;;31.30;71.40;;;;;;6241547;23;20050;-71
2023/08/14 13:48:03;;;;;;;2.92;1.63;;;31.20;71.20;;;;;;6240863;23;20008;-71
2023/08/14 13:50:49;;;;;;;3.47;1.70;;;31.20;71.50;;;;;;6238762;23;20012;-71
2023/08/14 13:53:35;;;;;;;4.40;1.95;;;31.20;70.90;;;;;;6239560;23;20015;-70
2023/08/14 13:56:21;;;;;;;3.55;1.70;;;31.10;71.00;;;;;;6241084;23;20043;-70
2023/08/14 13:59:06;;;;;;;3.45;2.17;;;31.00;70.40;;;;;;6239907;23;20004;-70
2023/08/14 14:01:52;;;;;;;3.40;1.83;;;31.00;70.70;;;;;;6239976;23;20024;-73
2023/08/14 14:04:39;;;;;;;2.83;1.80;;;30.90;70.30;;;;;;6237877;23;20016;-69
2023/08/14 14:07:25;;;;;;;3.45;2.10;;;30.90;70.40;;;;;;6240292;23;20015;-72
2023/08/14 14:10:11;;;;;;;2.67;1.95;;;30.80;69.70;;;;;;6240911;23;20405;-72
2023/08/14 14:12:57;;;;;;;2.63;1.63;;;30.80;70.10;;;;;;6240092;23;20016;-71
2023/08/14 14:15:43;;;;;;;3.47;1.90;;;30.70;70.40;;;;;;6240972;23;20319;-71
2023/08/14 14:18:29;;;;;;;3.13;1.65;;;30.80;70.20;;;;;;6239484;23;20012;-70
2023/08/14 14:21:15;;;;;;;3.55;2.17;;;30.80;70.10;;;;;;6241612;23;20016;-70
2023/08/14 14:24:01;;;;;;;3.45;1.70;;;30.80;69.80;;;;;;6240544;23;20381;-70
2023/08/14 14:26:47;;;;;;;3.17;1.80;;;30.90;70.60;;;;;;6241166;23;20091;-70
2023/08/14 14:29:33;;;;;;;2.42;1.85;;;30.90;70.30;;;;;;6239236;23;20011;-70